Time;durP1;ratioP1;P1;durP2;ratioP2;P2;SDS_P1;SDS_P2;PMS_P1;PMS_P2;Temp;Humidity;BMP_temperature;BMP_pressure;BME280_temperature;BME280_humidity;BME280_pressure;Samples;Min_cycle;Max_cycle;Signal;HPM_P1;HPM_P2
2022/07/04 00:00:18;;;;;;;5.00;2.88;;;13.90;99.90;;;;;;4976101;28;20053;-65
2022/07/04 00:02:46;;;;;;;3.53;2.95;;;13.90;99.90;;;;;;5009987;28;20578;-65
2022/07/04 00:05:12;;;;;;;7.82;2.90;;;13.80;99.90;;;;;;5008269;28;20041;-65
2022/07/04 00:07:44;;;;;;;4.75;2.47;;;13.80;99.90;;;;;;5001327;28;20500;-65
2022/07/04 00:10:12;;;;;;;4.38;2.80;;;13.80;99.90;;;;;;5011906;28;20049;-65
2022/07/04 00:12:38;;;;;;;6.20;2.80;;;13.80;99.90;;;;;;5009717;28;20120;-66
2022/07/04 00:15:06;;;;;;;6.55;3.55;;;13.70;99.90;;;;;;4975905;28;20520;-64
2022/07/04 00:17:32;;;;;;;6.50;3.47;;;13.70;99.90;;;;;;4999276;28;20144;-65
2022/07/04 00:19:57;;;;;;;6.53;2.97;;;13.70;99.90;;;;;;5009600;28;20041;-65
2022/07/04 00:22:23;;;;;;;8.73;3.40;;;13.70;99.90;;;;;;5005896;28;20044;-64
2022/07/04 00:24:49;;;;;;;6.68;3.78;;;13.70;99.90;;;;;;5008093;28;20060;-65
2022/07/04 00:27:15;;;;;;;11.68;3.72;;;13.70;99.90;;;;;;4989986;28;20046;-65
2022/07/04 00:29:41;;;;;;;8.45;3.75;;;13.70;99.90;;;;;;4987363;28;20087;-64
2022/07/04 00:32:08;;;;;;;4.38;3.65;;;13.60;99.90;;;;;;5000396;28;20164;-65
2022/07/04 00:34:34;;;;;;;5.38;3.83;;;13.60;99.90;;;;;;5009228;28;20531;-66
2022/07/04 00:36:59;;;;;;;8.10;3.70;;;13.60;99.90;;;;;;5000036;28;20080;-64
2022/07/04 00:39:25;;;;;;;6.55;3.70;;;13.50;99.90;;;;;;4991737;28;20053;-65
2022/07/04 00:41:51;;;;;;;10.25;4.00;;;13.50;99.90;;;;;;5007958;28;20136;-65
2022/07/04 00:44:17;;;;;;;5.03;3.72;;;13.50;99.90;;;;;;5000217;28;20493;-64
2022/07/04 00:46:45;;;;;;;10.27;3.60;;;13.50;99.90;;;;;;4984236;28;20055;-64
2022/07/04 00:49:12;;;;;;;6.55;3.95;;;13.40;99.90;;;;;;5007079;28;20054;-65
2022/07/04 00:51:39;;;;;;;5.03;3.33;;;13.40;99.90;;;;;;4991405;28;20041;-64
2022/07/04 00:54:07;;;;;;;5.45;3.40;;;13.30;99.90;;;;;;5008836;28;20180;-65
2022/07/04 00:56:36;;;;;;;5.50;3.53;;;13.30;99.90;;;;;;5005377;28;20144;-65
2022/07/04 00:59:02;;;;;;;6.00;3.42;;;13.20;99.90;;;;;;5023108;28;20862;-65
2022/07/04 01:01:28;;;;;;;7.53;3.63;;;13.20;99.90;;;;;;5011416;28;20038;-65
2022/07/04 01:03:55;;;;;;;6.32;4.00;;;13.10;99.90;;;;;;5011348;28;20515;-64
2022/07/04 01:06:21;;;;;;;7.57;3.80;;;13.10;99.90;;;;;;4993508;28;20128;-65
2022/07/04 01:08:47;;;;;;;5.80;3.60;;;13.10;99.90;;;;;;5001038;28;20049;-65
2022/07/04 01:11:15;;;;;;;4.03;3.60;;;13.10;99.90;;;;;;4990440;28;20064;-65
2022/07/04 01:13:42;;;;;;;6.57;4.30;;;13.10;99.90;;;;;;5006344;28;20427;-66
2022/07/04 01:16:08;;;;;;;8.63;4.05;;;13.10;99.90;;;;;;5007215;28;20061;-65
2022/07/04 01:18:35;;;;;;;5.78;3.60;;;13.00;99.90;;;;;;4999054;28;20412;-65
2022/07/04 01:21:01;;;;;;;5.30;3.70;;;13.00;99.90;;;;;;5007238;28;20135;-65
2022/07/04 01:23:27;;;;;;;4.50;3.90;;;13.00;99.90;;;;;;4987933;28;20124;-65
2022/07/04 01:25:53;;;;;;;8.57;4.22;;;13.00;99.90;;;;;;4991960;28;20601;-65
2022/07/04 01:28:20;;;;;;;8.20;4.00;;;12.90;99.90;;;;;;5011447;28;20048;-66
2022/07/04 01:30:46;;;;;;;8.65;4.18;;;12.90;99.90;;;;;;5014688;28;20049;-65
2022/07/04 01:33:12;;;;;;;6.95;4.18;;;12.90;99.90;;;;;;5007155;28;20061;-65
2022/07/04 01:35:38;;;;;;;9.10;4.30;;;13.00;99.90;;;;;;5011362;28;20486;-65
2022/07/04 01:38:04;;;;;;;9.02;4.40;;;12.90;99.90;;;;;;5001533;28;20081;-66
2022/07/04 01:40:30;;;;;;;10.25;4.20;;;12.90;99.90;;;;;;4992268;28;20068;-65
2022/07/04 01:42:58;;;;;;;7.70;4.70;;;12.90;99.90;;;;;;5011436;28;20045;-65
2022/07/04 01:45:24;;;;;;;8.05;4.43;;;12.90;99.90;;;;;;4998331;28;20470;-64
2022/07/04 01:47:50;;;;;;;7.38;4.75;;;12.90;99.90;;;;;;4998142;28;20041;-64
2022/07/04 01:50:16;;;;;;;10.25;4.30;;;12.90;99.90;;;;;;4990341;28;20057;-64
2022/07/04 01:52:42;;;;;;;7.22;4.30;;;12.90;99.90;;;;;;5004824;28;20057;-65
2022/07/04 01:55:09;;;;;;;7.03;4.18;;;12.90;99.90;;;;;;5009302;28;20041;-65
2022/07/04 01:57:36;;;;;;;7.95;4.95;;;12.90;99.90;;;;;;5010091;28;20536;-66
2022/07/04 02:03:06;;;;;;;8.70;4.70;;;12.90;99.90;;;;;;5012967;28;20507;-64
2022/07/04 02:05:31;;;;;;;9.90;4.63;;;12.90;99.90;;;;;;5014001;28;20046;-65
2022/07/04 02:07:57;;;;;;;8.65;4.80;;;12.90;99.90;;;;;;5017561;28;20041;-65
2022/07/04 02:10:23;;;;;;;7.18;5.00;;;12.90;99.90;;;;;;5005740;28;20191;-66
2022/07/04 02:13:01;;;;;;;8.70;4.57;;;12.90;99.90;;;;;;5016628;28;20052;-64
2022/07/04 02:15:35;;;;;;;8.25;4.82;;;12.80;99.90;;;;;;5007223;28;20118;-66
2022/07/04 02:18:03;;;;;;;9.95;5.28;;;12.80;99.90;;;;;;5019250;28;20053;-65
2022/07/04 02:20:29;;;;;;;9.07;5.10;;;12.80;99.90;;;;;;5018254;28;20041;-64
2022/07/04 02:22:56;;;;;;;8.77;5.18;;;12.70;99.90;;;;;;5009059;28;20076;-64
2022/07/04 02:25:22;;;;;;;7.20;5.03;;;12.80;99.90;;;;;;5012162;28;20064;-65
2022/07/04 02:27:47;;;;;;;8.95;5.30;;;12.80;99.90;;;;;;4978142;28;20041;-64
2022/07/04 02:30:14;;;;;;;11.30;5.32;;;12.80;99.90;;;;;;4996646;28;20148;-65
2022/07/04 02:32:40;;;;;;;7.90;5.60;;;12.80;99.90;;;;;;4989938;28;20079;-66
2022/07/04 02:35:06;;;;;;;8.95;5.78;;;12.80;99.90;;;;;;5012750;28;20062;-65
2022/07/04 02:37:32;;;;;;;8.18;5.03;;;12.80;99.90;;;;;;5004279;28;20053;-64
2022/07/04 02:39:58;;;;;;;6.72;5.05;;;12.80;99.90;;;;;;5014660;28;20395;-65
2022/07/04 02:42:28;;;;;;;9.52;5.57;;;12.80;99.90;;;;;;4986691;28;20045;-64
2022/07/04 02:44:54;;;;;;;7.65;5.65;;;12.80;99.90;;;;;;5008956;28;20066;-64
2022/07/04 02:47:19;;;;;;;9.57;5.80;;;12.90;99.90;;;;;;5012463;28;20072;-65
2022/07/04 02:49:45;;;;;;;9.75;5.75;;;12.90;99.90;;;;;;5001428;28;20053;-65
2022/07/04 02:52:11;;;;;;;9.70;6.40;;;12.90;99.90;;;;;;5030422;28;20045;-65
2022/07/04 02:54:37;;;;;;;11.23;6.50;;;12.90;99.90;;;;;;4979373;28;20049;-65
2022/07/04 02:57:03;;;;;;;8.93;6.20;;;12.90;99.90;;;;;;5015482;28;20551;-65
2022/07/04 02:59:29;;;;;;;7.10;5.40;;;12.90;99.90;;;;;;4998781;28;20136;-64
2022/07/04 03:01:54;;;;;;;9.05;6.15;;;12.80;99.90;;;;;;5012946;28;20492;-65
2022/07/04 03:04:20;;;;;;;7.50;6.00;;;12.80;99.90;;;;;;5012722;28;20072;-65
2022/07/04 03:06:46;;;;;;;9.32;6.78;;;12.80;99.90;;;;;;4994900;28;20046;-64
2022/07/04 03:09:12;;;;;;;9.23;6.43;;;12.70;99.90;;;;;;5014044;28;21136;-65
2022/07/04 03:11:37;;;;;;;14.25;6.65;;;12.70;99.90;;;;;;5002888;28;20084;-66
2022/07/04 03:14:03;;;;;;;11.93;7.00;;;12.70;99.90;;;;;;4961793;28;20610;-65
2022/07/04 03:16:29;;;;;;;17.75;6.78;;;12.70;99.90;;;;;;5009541;28;20171;-65
2022/07/04 03:18:55;;;;;;;10.88;7.57;;;12.70;99.90;;;;;;5002950;28;20163;-64
2022/07/04 03:21:21;;;;;;;11.25;7.07;;;12.70;99.90;;;;;;4999089;28;20067;-64
2022/07/04 03:23:57;;;;;;;13.32;7.95;;;12.60;99.90;;;;;;5022342;28;20515;-66
2022/07/04 03:26:31;;;;;;;8.38;6.80;;;12.60;99.90;;;;;;5011219;28;20045;-64
2022/07/04 03:28:58;;;;;;;9.30;7.57;;;12.60;99.90;;;;;;4997480;28;20049;-66
2022/07/04 03:31:25;;;;;;;12.10;8.10;;;12.60;99.90;;;;;;5011174;28;20068;-66
2022/07/04 03:33:52;;;;;;;11.85;7.60;;;12.60;99.90;;;;;;5004955;28;20080;-65
2022/07/04 03:36:18;;;;;;;11.88;7.68;;;12.60;99.90;;;;;;5005242;28;20092;-65
2022/07/04 03:38:44;;;;;;;13.68;8.50;;;12.70;99.90;;;;;;4986572;28;20509;-65
2022/07/04 03:41:10;;;;;;;12.68;8.05;;;12.70;99.90;;;;;;5004804;28;20120;-64
2022/07/04 03:43:37;;;;;;;13.93;8.73;;;12.70;99.90;;;;;;5010252;28;20128;-65
2022/07/04 03:46:03;;;;;;;13.35;8.52;;;12.70;99.90;;;;;;5004645;28;20045;-64
2022/07/04 03:48:29;;;;;;;11.15;8.30;;;12.70;99.90;;;;;;5010624;28;20064;-64
2022/07/04 03:50:55;;;;;;;12.63;8.35;;;12.70;99.90;;;;;;4990761;28;20135;-65
2022/07/04 03:53:21;;;;;;;11.98;7.85;;;12.80;99.90;;;;;;4991659;28;20160;-64
2022/07/04 03:55:47;;;;;;;11.80;7.85;;;12.80;99.90;;;;;;4995995;28;20480;-64
2022/07/04 03:58:13;;;;;;;11.43;8.43;;;12.80;99.90;;;;;;5004859;28;20574;-64
2022/07/04 04:00:39;;;;;;;11.95;7.43;;;12.90;99.90;;;;;;5012774;28;20104;-65
2022/07/04 04:05:26;;;;;;;11.18;8.27;;;12.90;99.90;;;;;;5005901;28;20484;-65
2022/07/04 04:05:55;;;;;;;10.45;7.93;;;12.80;99.90;;;;;;5029037;28;20637;-65
2022/07/04 04:08:21;;;;;;;12.57;8.27;;;12.90;99.90;;;;;;5008113;28;20055;-65
2022/07/04 04:10:47;;;;;;;10.82;9.20;;;13.00;99.90;;;;;;5012245;28;20056;-65
2022/07/04 04:13:13;;;;;;;11.30;8.15;;;13.00;99.90;;;;;;5005529;28;20037;-64
2022/07/04 04:15:39;;;;;;;11.82;8.63;;;13.10;99.90;;;;;;5011987;28;20063;-64
2022/07/04 04:18:04;;;;;;;13.55;8.27;;;13.10;99.90;;;;;;4993512;28;20045;-65
2022/07/04 04:20:30;;;;;;;14.05;8.63;;;13.20;99.90;;;;;;4988351;28;20161;-64
2022/07/04 04:22:56;;;;;;;15.38;8.20;;;13.20;99.90;;;;;;4996633;28;20399;-65
2022/07/04 04:25:22;;;;;;;16.38;8.85;;;13.20;99.90;;;;;;4990807;28;20052;-65
2022/07/04 04:27:48;;;;;;;15.68;8.70;;;13.30;99.90;;;;;;4999257;28;20555;-65
2022/07/04 04:30:14;;;;;;;15.88;8.40;;;13.30;99.90;;;;;;4986520;28;20045;-65
2022/07/04 04:32:39;;;;;;;13.10;7.68;;;13.40;99.90;;;;;;4971608;28;20076;-65
2022/07/04 04:35:05;;;;;;;12.48;7.63;;;13.40;99.90;;;;;;4998710;28;20062;-65
2022/07/04 04:37:31;;;;;;;11.75;8.60;;;13.50;99.90;;;;;;4986368;28;20057;-65
2022/07/04 04:39:57;;;;;;;13.93;8.50;;;13.50;99.90;;;;;;5013276;28;20061;-65
2022/07/04 04:42:23;;;;;;;13.15;7.90;;;13.50;99.90;;;;;;4992472;28;20045;-64
2022/07/04 04:44:49;;;;;;;13.45;7.35;;;13.50;99.90;;;;;;4997298;28;20048;-65
2022/07/04 04:47:15;;;;;;;14.25;7.10;;;13.60;99.90;;;;;;5012259;28;20049;-64
2022/07/04 04:49:41;;;;;;;15.38;7.53;;;13.60;99.90;;;;;;5005278;28;20049;-64
2022/07/04 04:52:07;;;;;;;11.15;7.00;;;13.60;99.90;;;;;;5008986;28;20439;-64
2022/07/04 04:54:33;;;;;;;9.95;6.85;;;13.60;99.90;;;;;;4997008;28;20507;-64
2022/07/04 04:56:59;;;;;;;10.70;7.07;;;13.60;99.90;;;;;;5003174;28;20049;-65
2022/07/04 04:59:26;;;;;;;14.60;6.65;;;13.70;99.90;;;;;;4995334;28;20514;-65
2022/07/04 05:01:52;;;;;;;8.52;6.13;;;13.80;99.90;;;;;;4992751;28;20056;-64
2022/07/04 05:04:18;;;;;;;10.43;6.53;;;13.80;99.90;;;;;;5006108;28;20041;-65
2022/07/04 05:06:44;;;;;;;10.95;6.43;;;13.80;99.90;;;;;;4991070;28;20057;-65
2022/07/04 05:09:10;;;;;;;14.05;6.53;;;13.90;99.90;;;;;;5002305;28;20045;-65
2022/07/04 05:11:35;;;;;;;10.05;6.32;;;13.90;99.90;;;;;;5010636;28;20049;-65
2022/07/04 05:14:02;;;;;;;12.98;6.22;;;14.00;99.90;;;;;;4977843;28;20492;-65
2022/07/04 05:16:27;;;;;;;12.38;6.47;;;14.00;99.90;;;;;;4990055;28;20049;-63
2022/07/04 05:18:53;;;;;;;10.73;6.45;;;14.10;99.90;;;;;;5002763;28;20160;-64
2022/07/04 05:21:19;;;;;;;10.60;6.32;;;14.20;99.90;;;;;;4993360;28;20139;-64
2022/07/04 05:23:45;;;;;;;11.90;7.15;;;14.20;99.90;;;;;;5009233;28;20053;-65
2022/07/04 05:26:11;;;;;;;10.98;6.55;;;14.20;99.90;;;;;;4978725;28;20083;-65
2022/07/04 05:28:37;;;;;;;11.48;6.90;;;14.20;99.90;;;;;;5002814;28;20071;-64
2022/07/04 05:31:03;;;;;;;9.48;6.25;;;14.30;99.90;;;;;;5003475;28;20053;-65
2022/07/04 05:33:28;;;;;;;12.88;7.20;;;14.30;99.90;;;;;;4976877;28;20049;-66
2022/07/04 05:35:54;;;;;;;10.95;6.35;;;14.30;99.90;;;;;;5004176;28;20074;-65
2022/07/04 05:38:20;;;;;;;10.60;7.18;;;14.40;99.90;;;;;;5006527;28;20084;-65
2022/07/04 05:40:46;;;;;;;11.27;7.57;;;14.40;99.90;;;;;;5005520;28;20120;-65
2022/07/04 05:43:12;;;;;;;10.63;6.97;;;14.40;99.90;;;;;;4997143;28;20048;-65
2022/07/04 05:45:38;;;;;;;12.70;7.00;;;14.50;99.90;;;;;;5017427;28;20103;-64
2022/07/04 05:48:03;;;;;;;13.48;6.75;;;14.50;99.90;;;;;;4999362;28;20419;-65
2022/07/04 05:50:29;;;;;;;11.43;6.78;;;14.60;99.90;;;;;;5004533;28;20128;-66
2022/07/04 05:52:55;;;;;;;10.65;7.00;;;14.70;99.90;;;;;;4996086;28;20638;-65
2022/07/04 05:55:21;;;;;;;14.90;6.97;;;14.70;99.90;;;;;;5002422;28;20048;-66
2022/07/04 05:57:47;;;;;;;11.43;7.30;;;14.90;99.90;;;;;;5002458;28;20052;-65
2022/07/04 06:00:13;;;;;;;15.18;7.35;;;14.90;99.90;;;;;;4974667;28;20139;-65
2022/07/04 06:02:39;;;;;;;13.55;7.38;;;15.00;99.90;;;;;;4997100;28;20050;-66
2022/07/04 06:05:05;;;;;;;12.77;6.47;;;15.10;99.90;;;;;;5001546;28;20514;-65
2022/07/04 06:07:31;;;;;;;15.48;6.97;;;15.20;99.90;;;;;;5021599;28;20046;-65
2022/07/04 06:09:57;;;;;;;11.10;6.75;;;15.30;99.90;;;;;;4994294;28;20107;-64
2022/07/04 06:12:22;;;;;;;15.15;6.47;;;15.40;99.90;;;;;;4997520;28;20052;-64
2022/07/04 06:14:48;;;;;;;11.80;6.63;;;15.50;99.90;;;;;;4979854;28;20041;-65
2022/07/04 06:17:14;;;;;;;11.07;5.90;;;15.60;99.90;;;;;;5014731;28;20068;-65
2022/07/04 06:19:40;;;;;;;11.50;6.35;;;15.70;99.90;;;;;;5006776;28;20049;-64
2022/07/04 06:22:06;;;;;;;12.40;6.32;;;15.80;99.90;;;;;;4990197;28;20045;-65
2022/07/04 06:24:32;;;;;;;11.55;6.07;;;15.90;99.90;;;;;;5001928;28;20048;-66
2022/07/04 06:26:57;;;;;;;16.15;5.85;;;16.00;99.90;;;;;;4990369;28;20041;-65
2022/07/04 06:29:23;;;;;;;10.35;5.40;;;16.10;99.90;;;;;;5012915;28;20270;-65
2022/07/04 06:31:49;;;;;;;12.15;5.72;;;16.30;99.90;;;;;;5018515;28;20059;-66
2022/07/04 06:37:00;;;;;;;8.52;4.85;;;16.40;99.90;;;;;;5002885;28;20117;-64
2022/07/04 06:39:26;;;;;;;9.68;5.15;;;16.60;99.90;;;;;;4999738;28;20120;-65
2022/07/04 06:41:52;;;;;;;9.00;4.85;;;16.70;99.90;;;;;;5003624;28;20050;-66
2022/07/04 06:44:18;;;;;;;11.30;4.88;;;16.80;99.90;;;;;;5016542;28;20048;-64
2022/07/04 06:46:45;;;;;;;11.88;4.75;;;16.90;99.90;;;;;;5013465;28;20820;-65
2022/07/04 06:49:11;;;;;;;11.60;5.40;;;16.90;99.90;;;;;;4993315;28;20176;-66
2022/07/04 06:51:37;;;;;;;9.43;4.40;;;17.10;99.90;;;;;;4982573;28;20041;-65
2022/07/04 06:54:03;;;;;;;12.13;5.13;;;17.20;99.90;;;;;;4995218;28;20041;-65
2022/07/04 06:56:28;;;;;;;9.52;4.88;;;17.30;99.90;;;;;;5014313;28;20491;-65
2022/07/04 06:58:57;;;;;;;9.48;4.85;;;17.40;99.90;;;;;;5010520;28;20041;-65
2022/07/04 07:01:23;;;;;;;7.47;4.43;;;17.50;99.90;;;;;;4984112;28;20053;-65
2022/07/04 07:03:49;;;;;;;15.77;5.53;;;17.60;99.90;;;;;;4986402;28;20041;-65
2022/07/04 07:06:15;;;;;;;14.10;4.18;;;17.70;99.90;;;;;;4997814;28;20045;-65
2022/07/04 07:08:41;;;;;;;7.20;3.70;;;17.80;99.90;;;;;;5006230;28;20378;-64
2022/07/04 07:11:12;;;;;;;13.05;3.63;;;17.80;99.90;;;;;;4980397;28;20049;-66
2022/07/04 07:13:43;;;;;;;8.48;3.58;;;18.00;99.90;;;;;;5005981;28;20037;-64
2022/07/04 07:16:10;;;;;;;8.43;3.40;;;18.10;99.90;;;;;;4997497;28;20052;-65
2022/07/04 07:18:36;;;;;;;13.43;4.45;;;18.20;99.90;;;;;;5018671;28;20054;-65
2022/07/04 07:21:03;;;;;;;10.82;4.03;;;18.30;99.90;;;;;;4986577;28;21044;-65
2022/07/04 07:23:29;;;;;;;11.13;3.35;;;18.40;99.90;;;;;;5021701;28;20694;-64
2022/07/04 07:25:54;;;;;;;14.10;4.13;;;18.50;99.90;;;;;;4996082;28;20472;-65
2022/07/04 07:28:20;;;;;;;4.60;3.00;;;18.50;99.90;;;;;;5024104;28;20041;-65
2022/07/04 07:30:46;;;;;;;8.63;3.10;;;18.40;99.90;;;;;;5015411;28;20029;-66
2022/07/04 07:33:12;;;;;;;9.85;3.03;;;18.50;99.90;;;;;;5000574;28;20050;-65
2022/07/04 07:35:38;;;;;;;7.25;2.75;;;18.60;99.90;;;;;;5003787;28;20523;-64
2022/07/04 07:38:06;;;;;;;11.43;3.05;;;18.60;99.90;;;;;;5019060;28;20037;-65
2022/07/04 07:40:32;;;;;;;9.45;3.42;;;18.70;99.90;;;;;;5020583;28;20118;-65
2022/07/04 07:42:57;;;;;;;5.10;2.85;;;18.80;99.90;;;;;;5005604;28;20106;-65
2022/07/04 07:45:23;;;;;;;10.48;4.05;;;18.90;99.90;;;;;;4980698;28;21181;-65
2022/07/04 07:47:49;;;;;;;5.30;2.78;;;18.90;99.90;;;;;;5011024;28;20042;-66
2022/07/04 07:50:15;;;;;;;10.57;3.30;;;18.80;99.90;;;;;;5005372;28;20534;-65
2022/07/04 07:52:41;;;;;;;8.90;3.40;;;18.80;99.90;;;;;;5005731;28;20492;-65
2022/07/04 07:55:07;;;;;;;5.95;3.28;;;18.80;99.90;;;;;;5022067;28;20114;-64
2022/07/04 07:57:33;;;;;;;6.85;2.72;;;18.60;99.90;;;;;;5004314;28;20066;-65
2022/07/04 07:59:59;;;;;;;5.55;2.85;;;18.60;99.90;;;;;;4979674;28;20056;-65
2022/07/04 08:05:10;;;;;;;7.07;3.33;;;18.50;99.90;;;;;;5018918;28;20075;-65
2022/07/04 08:07:36;;;;;;;8.75;3.00;;;18.50;99.90;;;;;;5019406;28;20128;-65
2022/07/04 08:10:03;;;;;;;7.25;2.40;;;18.50;99.90;;;;;;5026670;28;20087;-65
2022/07/04 08:12:28;;;;;;;7.20;2.55;;;18.50;99.90;;;;;;5033612;28;20046;-64
2022/07/04 08:14:54;;;;;;;8.95;3.15;;;18.40;99.90;;;;;;5020219;28;20041;-64
2022/07/04 08:17:20;;;;;;;8.50;3.53;;;18.50;99.90;;;;;;4988683;28;20052;-65
2022/07/04 08:19:47;;;;;;;9.18;3.00;;;18.40;99.90;;;;;;4969501;28;20045;-64
2022/07/04 08:22:13;;;;;;;6.13;2.70;;;18.40;99.90;;;;;;5007275;28;20098;-65
2022/07/04 08:24:40;;;;;;;7.25;2.97;;;18.50;99.90;;;;;;4989411;28;20033;-65
2022/07/04 08:27:06;;;;;;;6.65;2.58;;;18.50;99.90;;;;;;5014138;28;20824;-65
2022/07/04 08:29:32;;;;;;;6.00;2.50;;;18.60;99.90;;;;;;5024649;28;20064;-64
2022/07/04 08:31:58;;;;;;;4.88;2.63;;;18.70;99.90;;;;;;5003898;28;20049;-64
2022/07/04 08:34:24;;;;;;;8.80;3.00;;;19.00;99.90;;;;;;4993437;28;20053;-65
2022/07/04 08:36:50;;;;;;;6.68;2.40;;;19.20;99.90;;;;;;5022997;28;20054;-65
2022/07/04 08:39:16;;;;;;;5.63;2.00;;;19.30;99.90;;;;;;4977355;28;20487;-65
2022/07/04 08:41:42;;;;;;;2.92;1.50;;;19.30;99.90;;;;;;5002353;28;20045;-64
2022/07/04 08:44:11;;;;;;;7.25;2.00;;;19.40;99.90;;;;;;5009226;28;20115;-65
2022/07/04 08:46:42;;;;;;;4.85;1.80;;;19.60;99.90;;;;;;5011808;28;20087;-66
2022/07/04 08:49:17;;;;;;;2.13;1.35;;;19.80;99.90;;;;;;5009525;28;20036;-65
2022/07/04 08:51:54;;;;;;;3.35;1.10;;;19.90;99.90;;;;;;5019760;28;20387;-65
2022/07/04 08:59:55;;;;;;;4.22;1.27;;;20.40;99.90;;;;;;5012885;28;20163;-64
2022/07/04 09:02:22;;;;;;;3.72;1.10;;;20.50;99.90;;;;;;5009712;28;20361;-64
2022/07/04 09:04:49;;;;;;;3.67;1.30;;;20.60;99.90;;;;;;5011251;28;20047;-65
2022/07/04 09:07:15;;;;;;;4.55;1.30;;;20.70;99.50;;;;;;5013723;28;20043;-66
2022/07/04 09:09:41;;;;;;;3.15;1.10;;;20.80;99.00;;;;;;5014140;28;20053;-64
2022/07/04 09:12:09;;;;;;;3.05;1.20;;;20.90;98.00;;;;;;5000573;28;20137;-65
2022/07/04 09:14:41;;;;;;;1.95;1.20;;;21.00;97.20;;;;;;5008612;28;20069;-65
2022/07/04 09:17:10;;;;;;;2.35;1.33;;;21.00;96.20;;;;;;4989441;28;20044;-64
2022/07/04 09:19:35;;;;;;;7.15;1.10;;;21.10;94.90;;;;;;5010566;28;20463;-64
2022/07/04 09:22:11;;;;;;;2.63;1.15;;;21.10;94.40;;;;;;5007184;28;20476;-64
2022/07/04 09:24:52;;;;;;;4.25;1.13;;;21.30;94.20;;;;;;5006077;28;20609;-64
2022/07/04 09:27:39;;;;;;;3.13;1.27;;;21.30;94.30;;;;;;5014257;28;20073;-65
2022/07/04 09:30:06;;;;;;;2.55;0.90;;;21.20;93.10;;;;;;5010244;28;20040;-66
2022/07/04 09:33:02;;;;;;;6.03;1.40;;;21.00;92.90;;;;;;4989569;28;20046;-65
2022/07/04 09:35:30;;;;;;;3.67;1.00;;;20.80;93.20;;;;;;5019409;28;20057;-65
2022/07/04 09:37:59;;;;;;;2.50;1.10;;;20.90;94.00;;;;;;5034176;28;20049;-65
2022/07/04 09:40:33;;;;;;;3.90;1.25;;;21.00;94.00;;;;;;5011452;28;20045;-66
2022/07/04 09:43:10;;;;;;;4.47;1.65;;;21.20;94.10;;;;;;4993959;28;20126;-65
2022/07/04 09:46:00;;;;;;;2.65;1.02;;;21.40;94.50;;;;;;4977183;28;20052;-65
2022/07/04 09:48:46;;;;;;;2.08;1.00;;;21.60;94.20;;;;;;5014089;28;20041;-65
2022/07/04 09:51:12;;;;;;;4.05;1.20;;;21.80;93.40;;;;;;5032139;28;20487;-64
2022/07/04 09:53:38;;;;;;;2.38;1.00;;;22.00;93.80;;;;;;5011406;28;20045;-64
2022/07/04 09:56:04;;;;;;;3.13;1.10;;;22.30;93.20;;;;;;4976495;28;21860;-66
2022/07/04 09:58:30;;;;;;;4.53;1.20;;;22.60;92.30;;;;;;4994279;28;20051;-64
2022/07/04 10:00:59;;;;;;;2.80;1.10;;;22.80;91.40;;;;;;4998723;28;20572;-65
2022/07/04 10:03:34;;;;;;;2.30;0.93;;;23.00;91.20;;;;;;5016687;28;20041;-65
2022/07/04 10:06:11;;;;;;;2.65;1.10;;;23.10;90.30;;;;;;4996318;28;20053;-65
2022/07/04 10:08:38;;;;;;;2.60;1.20;;;22.90;90.00;;;;;;5002057;28;20049;-65
2022/07/04 10:11:05;;;;;;;5.18;1.20;;;22.70;89.90;;;;;;4984900;28;20157;-65
2022/07/04 10:13:31;;;;;;;2.30;1.00;;;22.60;90.00;;;;;;5008123;28;20073;-65
2022/07/04 10:15:57;;;;;;;4.03;1.20;;;22.40;90.10;;;;;;5010210;28;20068;-66
2022/07/04 10:18:24;;;;;;;3.03;1.00;;;22.40;90.80;;;;;;5001863;28;20064;-64
2022/07/04 10:20:52;;;;;;;3.28;1.20;;;22.30;90.50;;;;;;5017217;28;20050;-65
2022/07/04 10:23:19;;;;;;;2.53;1.27;;;22.30;90.80;;;;;;5015976;28;20675;-64
2022/07/04 10:25:53;;;;;;;3.30;1.25;;;22.50;91.00;;;;;;5017340;28;21268;-65
2022/07/04 10:28:20;;;;;;;3.90;1.40;;;22.70;90.70;;;;;;5011997;28;20041;-64
2022/07/04 10:30:51;;;;;;;2.55;1.25;;;22.90;91.10;;;;;;5022183;28;20049;-65
2022/07/04 10:33:21;;;;;;;5.00;1.65;;;23.20;90.10;;;;;;5014328;28;20084;-65
2022/07/04 10:35:55;;;;;;;3.65;1.15;;;23.40;88.50;;;;;;5018880;28;20508;-65
2022/07/04 10:38:27;;;;;;;2.97;1.50;;;23.60;85.90;;;;;;5022799;28;20041;-64
2022/07/04 10:41:07;;;;;;;2.50;1.30;;;23.80;85.80;;;;;;4983903;28;20053;-66
2022/07/04 10:43:42;;;;;;;3.65;1.48;;;23.70;85.00;;;;;;5017636;28;20210;-65
2022/07/04 10:46:16;;;;;;;4.85;1.30;;;23.50;84.50;;;;;;5011780;28;20048;-65
2022/07/04 10:49:02;;;;;;;2.80;1.13;;;23.10;83.60;;;;;;5013716;28;20114;-65
2022/07/04 10:51:41;;;;;;;3.13;1.00;;;22.80;83.00;;;;;;5013698;28;20053;-65
2022/07/04 10:54:12;;;;;;;4.28;1.50;;;22.60;82.90;;;;;;5017133;28;20053;-65
2022/07/04 10:56:40;;;;;;;4.43;1.42;;;22.60;84.50;;;;;;4992519;28;20041;-64
2022/07/04 10:59:16;;;;;;;2.67;1.55;;;22.70;84.10;;;;;;5029728;28;20045;-65
2022/07/04 11:01:47;;;;;;;4.28;1.40;;;22.90;84.00;;;;;;5017842;28;20041;-64
2022/07/04 11:04:13;;;;;;;4.72;1.10;;;22.90;82.40;;;;;;4996209;28;20127;-65
2022/07/04 11:06:39;;;;;;;2.13;1.20;;;22.80;81.40;;;;;;5018849;28;20120;-65
2022/07/04 11:09:23;;;;;;;3.80;1.05;;;22.70;81.40;;;;;;5004248;28;20407;-64
2022/07/04 11:11:58;;;;;;;2.05;1.10;;;22.70;80.70;;;;;;5007645;28;20041;-64
2022/07/04 11:14:38;;;;;;;2.58;1.02;;;22.60;79.80;;;;;;5017762;28;20051;-64
2022/07/04 11:17:06;;;;;;;6.82;1.15;;;22.80;82.30;;;;;;5012694;28;20121;-65
2022/07/04 11:19:32;;;;;;;2.33;0.88;;;23.10;81.40;;;;;;5020554;28;20151;-64
2022/07/04 11:21:58;;;;;;;2.15;0.95;;;23.40;78.80;;;;;;4996638;28;20067;-64
2022/07/04 11:24:25;;;;;;;3.33;1.10;;;23.60;76.20;;;;;;5004162;28;20397;-65
2022/07/04 11:26:51;;;;;;;6.05;0.90;;;23.30;74.30;;;;;;5010133;28;20049;-64
2022/07/04 11:29:17;;;;;;;1.83;0.80;;;23.20;75.20;;;;;;5019355;28;21092;-65
2022/07/04 11:31:46;;;;;;;6.28;1.10;;;23.30;75.50;;;;;;5020350;28;20094;-64
2022/07/04 11:34:12;;;;;;;6.80;1.00;;;23.40;75.60;;;;;;5010654;28;20052;-64
2022/07/04 11:36:44;;;;;;;4.32;0.93;;;23.50;75.60;;;;;;5021018;28;20505;-64
2022/07/04 11:39:12;;;;;;;4.10;0.70;;;23.70;73.90;;;;;;5010315;28;20128;-64
2022/07/04 11:47:20;;;;;;;2.50;0.90;;;23.70;71.70;;;;;;5018286;28;20045;-65
2022/07/04 11:49:57;;;;;;;5.00;1.02;;;23.60;71.50;;;;;;5037044;28;20443;-65
2022/07/04 11:52:44;;;;;;;3.05;0.90;;;23.60;71.10;;;;;;5017392;28;20073;-65
2022/07/04 11:55:13;;;;;;;1.65;0.80;;;23.50;70.60;;;;;;5019939;28;20045;-66
2022/07/04 11:57:41;;;;;;;1.67;0.90;;;23.30;70.40;;;;;;5016125;28;20045;-64
2022/07/04 12:00:09;;;;;;;1.40;0.88;;;23.40;70.60;;;;;;5015079;28;20448;-65
2022/07/04 12:02:35;;;;;;;3.13;0.95;;;23.70;69.70;;;;;;4993414;28;20041;-65
2022/07/04 12:05:08;;;;;;;5.57;1.00;;;23.80;68.30;;;;;;5007506;28;20049;-65
2022/07/04 12:07:37;;;;;;;2.85;0.95;;;23.90;67.30;;;;;;4992069;28;20053;-64
2022/07/04 12:10:18;;;;;;;3.20;0.80;;;24.00;66.60;;;;;;4998958;28;20054;-64
2022/07/04 12:12:53;;;;;;;4.88;0.98;;;24.10;66.40;;;;;;5011064;28;20059;-65
2022/07/04 12:15:20;;;;;;;5.13;0.82;;;24.00;65.40;;;;;;4990731;28;20080;-64
2022/07/04 12:17:54;;;;;;;3.65;0.88;;;24.10;65.80;;;;;;4977140;28;20103;-63
2022/07/04 12:20:22;;;;;;;2.95;0.90;;;24.30;65.10;;;;;;4989892;28;20046;-66
2022/07/04 12:22:51;;;;;;;2.03;0.82;;;24.40;64.20;;;;;;5016388;28;20143;-65
2022/07/04 12:25:32;;;;;;;3.35;0.80;;;24.60;64.10;;;;;;5010000;28;20042;-64
2022/07/04 12:28:01;;;;;;;5.28;0.90;;;24.70;64.00;;;;;;5012251;28;20046;-64
2022/07/04 12:30:32;;;;;;;4.18;0.90;;;24.70;63.70;;;;;;4996322;28;20070;-64
2022/07/04 12:33:03;;;;;;;2.13;0.90;;;24.70;63.20;;;;;;5014490;28;20102;-65
2022/07/04 12:35:32;;;;;;;4.55;1.38;;;24.60;63.60;;;;;;5011485;28;20198;-64
2022/07/04 12:38:10;;;;;;;1.45;0.98;;;24.70;63.80;;;;;;5019197;28;20049;-65
2022/07/04 12:40:49;;;;;;;4.95;1.08;;;24.60;63.50;;;;;;5014290;28;20476;-65
2022/07/04 12:43:15;;;;;;;2.05;0.90;;;24.30;63.40;;;;;;4981335;28;20484;-65
2022/07/04 12:45:53;;;;;;;2.15;1.25;;;24.30;64.60;;;;;;5015610;28;20045;-64
2022/07/04 12:48:25;;;;;;;3.92;1.30;;;24.40;64.60;;;;;;4980348;28;20108;-64
2022/07/04 12:50:53;;;;;;;4.10;0.98;;;24.60;64.30;;;;;;5001145;28;20057;-65
2022/07/04 12:53:19;;;;;;;2.38;0.95;;;24.80;64.90;;;;;;5019817;28;20051;-64
2022/07/04 12:55:47;;;;;;;2.03;0.90;;;24.90;64.20;;;;;;5020575;28;20053;-65
2022/07/04 12:58:13;;;;;;;7.78;0.90;;;25.10;64.20;;;;;;5011950;28;20083;-65
2022/07/04 13:00:40;;;;;;;3.03;1.02;;;25.20;62.80;;;;;;5022152;28;20447;-66
2022/07/04 13:03:06;;;;;;;2.00;1.10;;;25.40;62.50;;;;;;5002018;28;20046;-65
2022/07/04 13:05:37;;;;;;;6.25;0.90;;;25.60;62.80;;;;;;4989113;28;20037;-64